sensor_id;sensor_type;location;lat;lon;timestamp;P1;durP1;ratioP1;P2;durP2;ratioP2
76196;SDS011;64974;53.144;17.962;2023-02-15T00:01:49;176.55;;;63.58;;
76196;SDS011;64974;53.144;17.962;2023-02-15T00:04:16;175.95;;;61.88;;
76196;SDS011;64974;53.144;17.962;2023-02-15T00:06:42;187.98;;;61.05;;
76196;SDS011;64974;53.144;17.962;2023-02-15T00:09:08;161.50;;;57.67;;
76196;SDS011;64974;53.144;17.962;2023-02-15T00:11:34;154.02;;;55.70;;
76196;SDS011;64974;53.144;17.962;2023-02-15T00:16:34;160.70;;;53.08;;
76196;SDS011;64974;53.144;17.962;2023-02-15T00:19:00;142.63;;;52.05;;
76196;SDS011;64974;53.144;17.962;2023-02-15T00:21:29;118.28;;;44.75;;
76196;SDS011;64974;53.144;17.962;2023-02-15T00:23:55;126.88;;;45.15;;
76196;SDS011;64974;53.144;17.962;2023-02-15T00:26:21;146.90;;;51.45;;
76196;SDS011;64974;53.144;17.962;2023-02-15T00:28:46;127.95;;;45.25;;
76196;SDS011;64974;53.144;17.962;2023-02-15T00:31:12;138.73;;;49.23;;
76196;SDS011;64974;53.144;17.962;2023-02-15T00:33:37;129.88;;;48.03;;
76196;SDS011;64974;53.144;17.962;2023-02-15T00:36:04;116.97;;;46.28;;
76196;SDS011;64974;53.144;17.962;2023-02-15T00:38:33;112.35;;;43.17;;
76196;SDS011;64974;53.144;17.962;2023-02-15T00:41:00;114.78;;;43.13;;
76196;SDS011;64974;53.144;17.962;2023-02-15T00:43:26;114.10;;;45.40;;
76196;SDS011;64974;53.144;17.962;2023-02-15T00:45:53;108.00;;;42.90;;
76196;SDS011;64974;53.144;17.962;2023-02-15T00:48:19;111.45;;;42.60;;
76196;SDS011;64974;53.144;17.962;2023-02-15T00:50:45;115.18;;;44.17;;
76196;SDS011;64974;53.144;17.962;2023-02-15T00:55:36;118.63;;;41.70;;
76196;SDS011;64974;53.144;17.962;2023-02-15T00:58:02;123.60;;;46.83;;
76196;SDS011;64974;53.144;17.962;2023-02-15T01:00:27;119.13;;;44.10;;
76196;SDS011;64974;53.144;17.962;2023-02-15T01:02:52;136.20;;;48.27;;
76196;SDS011;64974;53.144;17.962;2023-02-15T01:05:18;144.68;;;54.30;;
76196;SDS011;64974;53.144;17.962;2023-02-15T01:07:43;148.93;;;53.88;;
76196;SDS011;64974;53.144;17.962;2023-02-15T01:10:08;132.77;;;51.10;;
76196;SDS011;64974;53.144;17.962;2023-02-15T01:12:34;143.85;;;52.88;;
76196;SDS011;64974;53.144;17.962;2023-02-15T01:14:59;160.00;;;59.57;;
76196;SDS011;64974;53.144;17.962;2023-02-15T01:17:24;149.07;;;51.67;;
76196;SDS011;64974;53.144;17.962;2023-02-15T01:19:50;149.82;;;53.28;;
76196;SDS011;64974;53.144;17.962;2023-02-15T01:22:16;146.27;;;52.15;;
76196;SDS011;64974;53.144;17.962;2023-02-15T01:24:41;137.45;;;51.65;;
76196;SDS011;64974;53.144;17.962;2023-02-15T01:27:07;141.93;;;51.63;;
76196;SDS011;64974;53.144;17.962;2023-02-15T01:29:32;142.63;;;52.67;;
76196;SDS011;64974;53.144;17.962;2023-02-15T01:31:57;154.93;;;55.70;;
76196;SDS011;64974;53.144;17.962;2023-02-15T01:34:23;151.53;;;56.37;;
76196;SDS011;64974;53.144;17.962;2023-02-15T01:36:48;163.80;;;58.33;;
76196;SDS011;64974;53.144;17.962;2023-02-15T01:39:13;154.47;;;58.53;;
76196;SDS011;64974;53.144;17.962;2023-02-15T01:41:39;160.98;;;54.63;;
76196;SDS011;64974;53.144;17.962;2023-02-15T01:44:40;143.27;;;56.50;;
76196;SDS011;64974;53.144;17.962;2023-02-15T01:47:09;148.02;;;55.80;;
76196;SDS011;64974;53.144;17.962;2023-02-15T01:49:35;140.75;;;53.15;;
76196;SDS011;64974;53.144;17.962;2023-02-15T01:52:01;155.82;;;54.88;;
76196;SDS011;64974;53.144;17.962;2023-02-15T01:54:30;143.52;;;53.83;;
76196;SDS011;64974;53.144;17.962;2023-02-15T01:57:01;147.93;;;51.20;;
76196;SDS011;64974;53.144;17.962;2023-02-15T01:59:28;150.10;;;59.10;;
76196;SDS011;64974;53.144;17.962;2023-02-15T02:01:55;150.15;;;55.72;;
76196;SDS011;64974;53.144;17.962;2023-02-15T02:07:00;140.48;;;54.75;;
76196;SDS011;64974;53.144;17.962;2023-02-15T02:09:27;162.10;;;54.20;;
76196;SDS011;64974;53.144;17.962;2023-02-15T02:11:52;143.82;;;56.30;;
76196;SDS011;64974;53.144;17.962;2023-02-15T02:14:19;155.77;;;56.22;;
76196;SDS011;64974;53.144;17.962;2023-02-15T02:17:04;146.15;;;55.25;;
76196;SDS011;64974;53.144;17.962;2023-02-15T02:27:44;137.37;;;52.83;;
76196;SDS011;64974;53.144;17.962;2023-02-15T02:38:56;139.52;;;48.72;;
76196;SDS011;64974;53.144;17.962;2023-02-15T02:46:41;135.20;;;50.70;;
76196;SDS011;64974;53.144;17.962;2023-02-15T02:49:12;133.30;;;49.75;;
76196;SDS011;64974;53.144;17.962;2023-02-15T02:51:37;133.93;;;50.35;;
76196;SDS011;64974;53.144;17.962;2023-02-15T02:54:04;120.90;;;51.03;;
76196;SDS011;64974;53.144;17.962;2023-02-15T02:56:34;143.77;;;53.03;;
76196;SDS011;64974;53.144;17.962;2023-02-15T02:59:24;139.93;;;53.67;;
76196;SDS011;64974;53.144;17.962;2023-02-15T03:02:16;148.15;;;54.20;;
76196;SDS011;64974;53.144;17.962;2023-02-15T03:04:49;143.38;;;53.05;;
76196;SDS011;64974;53.144;17.962;2023-02-15T03:07:23;134.60;;;54.30;;
76196;SDS011;64974;53.144;17.962;2023-02-15T03:09:54;134.00;;;54.22;;
76196;SDS011;64974;53.144;17.962;2023-02-15T03:12:24;120.13;;;48.65;;
76196;SDS011;64974;53.144;17.962;2023-02-15T03:14:55;114.45;;;46.45;;
76196;SDS011;64974;53.144;17.962;2023-02-15T03:17:25;117.80;;;47.35;;
76196;SDS011;64974;53.144;17.962;2023-02-15T03:19:52;117.47;;;43.67;;
76196;SDS011;64974;53.144;17.962;2023-02-15T03:22:20;101.53;;;42.15;;
76196;SDS011;64974;53.144;17.962;2023-02-15T03:27:22;83.47;;;35.55;;
76196;SDS011;64974;53.144;17.962;2023-02-15T03:29:51;88.55;;;36.25;;
76196;SDS011;64974;53.144;17.962;2023-02-15T03:32:19;82.63;;;34.63;;
76196;SDS011;64974;53.144;17.962;2023-02-15T03:34:44;84.32;;;34.15;;
76196;SDS011;64974;53.144;17.962;2023-02-15T03:39:42;78.97;;;32.90;;
76196;SDS011;64974;53.144;17.962;2023-02-15T03:44:58;76.22;;;33.92;;
76196;SDS011;64974;53.144;17.962;2023-02-15T03:47:29;71.03;;;30.42;;
76196;SDS011;64974;53.144;17.962;2023-02-15T03:52:49;72.20;;;29.80;;
76196;SDS011;64974;53.144;17.962;2023-02-15T03:55:14;75.43;;;30.08;;
76196;SDS011;64974;53.144;17.962;2023-02-15T03:57:40;78.40;;;30.95;;
76196;SDS011;64974;53.144;17.962;2023-02-15T04:00:24;75.38;;;29.65;;
76196;SDS011;64974;53.144;17.962;2023-02-15T04:03:15;73.18;;;28.95;;
76196;SDS011;64974;53.144;17.962;2023-02-15T04:05:54;72.90;;;29.48;;
76196;SDS011;64974;53.144;17.962;2023-02-15T04:08:19;74.10;;;30.67;;
76196;SDS011;64974;53.144;17.962;2023-02-15T04:10:45;70.82;;;29.10;;
76196;SDS011;64974;53.144;17.962;2023-02-15T04:13:29;65.15;;;28.05;;
76196;SDS011;64974;53.144;17.962;2023-02-15T04:15:55;71.28;;;28.73;;
76196;SDS011;64974;53.144;17.962;2023-02-15T04:21:18;71.57;;;30.17;;
76196;SDS011;64974;53.144;17.962;2023-02-15T04:24:03;64.35;;;28.50;;
76196;SDS011;64974;53.144;17.962;2023-02-15T04:26:47;61.72;;;26.08;;
76196;SDS011;64974;53.144;17.962;2023-02-15T04:29:13;64.85;;;25.65;;
76196;SDS011;64974;53.144;17.962;2023-02-15T04:31:39;54.28;;;24.15;;
76196;SDS011;64974;53.144;17.962;2023-02-15T04:34:05;60.35;;;24.85;;
76196;SDS011;64974;53.144;17.962;2023-02-15T04:36:30;58.37;;;22.73;;
76196;SDS011;64974;53.144;17.962;2023-02-15T04:38:55;53.97;;;23.88;;
76196;SDS011;64974;53.144;17.962;2023-02-15T04:41:21;58.22;;;24.13;;
76196;SDS011;64974;53.144;17.962;2023-02-15T04:43:46;51.83;;;23.90;;
76196;SDS011;64974;53.144;17.962;2023-02-15T04:46:11;52.97;;;22.80;;
76196;SDS011;64974;53.144;17.962;2023-02-15T04:48:37;58.87;;;23.13;;
76196;SDS011;64974;53.144;17.962;2023-02-15T04:51:08;53.27;;;20.63;;
76196;SDS011;64974;53.144;17.962;2023-02-15T04:53:34;49.60;;;20.48;;
76196;SDS011;64974;53.144;17.962;2023-02-15T04:56:00;47.85;;;22.77;;
76196;SDS011;64974;53.144;17.962;2023-02-15T04:58:25;54.40;;;21.58;;
76196;SDS011;64974;53.144;17.962;2023-02-15T05:00:50;55.33;;;20.33;;
76196;SDS011;64974;53.144;17.962;2023-02-15T05:03:16;51.57;;;20.50;;
76196;SDS011;64974;53.144;17.962;2023-02-15T05:05:41;48.50;;;21.25;;
76196;SDS011;64974;53.144;17.962;2023-02-15T05:08:07;52.42;;;20.85;;
76196;SDS011;64974;53.144;17.962;2023-02-15T05:10:32;52.27;;;20.90;;
76196;SDS011;64974;53.144;17.962;2023-02-15T05:12:58;57.73;;;21.47;;
76196;SDS011;64974;53.144;17.962;2023-02-15T05:15:23;51.90;;;20.27;;
76196;SDS011;64974;53.144;17.962;2023-02-15T05:17:49;50.60;;;21.83;;
76196;SDS011;64974;53.144;17.962;2023-02-15T05:20:14;53.97;;;22.80;;
76196;SDS011;64974;53.144;17.962;2023-02-15T05:22:40;56.63;;;22.13;;
76196;SDS011;64974;53.144;17.962;2023-02-15T05:25:05;48.90;;;21.42;;
76196;SDS011;64974;53.144;17.962;2023-02-15T05:27:50;49.47;;;20.85;;
76196;SDS011;64974;53.144;17.962;2023-02-15T05:30:33;56.75;;;22.25;;
76196;SDS011;64974;53.144;17.962;2023-02-15T05:32:59;53.83;;;23.70;;
76196;SDS011;64974;53.144;17.962;2023-02-15T05:35:24;50.40;;;21.03;;
76196;SDS011;64974;53.144;17.962;2023-02-15T05:37:49;50.20;;;21.67;;
76196;SDS011;64974;53.144;17.962;2023-02-15T05:40:15;48.95;;;22.70;;
76196;SDS011;64974;53.144;17.962;2023-02-15T05:42:40;54.72;;;22.55;;
76196;SDS011;64974;53.144;17.962;2023-02-15T05:45:06;52.27;;;20.93;;
76196;SDS011;64974;53.144;17.962;2023-02-15T05:47:31;54.33;;;22.50;;
76196;SDS011;64974;53.144;17.962;2023-02-15T05:49:57;51.63;;;22.05;;
76196;SDS011;64974;53.144;17.962;2023-02-15T05:52:22;58.03;;;23.80;;
76196;SDS011;64974;53.144;17.962;2023-02-15T05:54:47;52.97;;;23.40;;
76196;SDS011;64974;53.144;17.962;2023-02-15T05:57:13;60.75;;;27.00;;
76196;SDS011;64974;53.144;17.962;2023-02-15T05:59:38;83.13;;;30.83;;
76196;SDS011;64974;53.144;17.962;2023-02-15T06:02:03;84.47;;;36.63;;
76196;SDS011;64974;53.144;17.962;2023-02-15T06:04:29;108.97;;;40.13;;
76196;SDS011;64974;53.144;17.962;2023-02-15T06:06:54;100.20;;;37.47;;
76196;SDS011;64974;53.144;17.962;2023-02-15T06:09:19;91.77;;;36.17;;
76196;SDS011;64974;53.144;17.962;2023-02-15T06:11:45;80.93;;;35.38;;
76196;SDS011;64974;53.144;17.962;2023-02-15T06:14:10;70.57;;;31.00;;
76196;SDS011;64974;53.144;17.962;2023-02-15T06:16:36;59.53;;;25.95;;
76196;SDS011;64974;53.144;17.962;2023-02-15T06:19:01;59.50;;;25.73;;
76196;SDS011;64974;53.144;17.962;2023-02-15T06:21:27;56.33;;;25.75;;
76196;SDS011;64974;53.144;17.962;2023-02-15T06:23:53;62.03;;;25.70;;
76196;SDS011;64974;53.144;17.962;2023-02-15T06:26:18;57.53;;;25.67;;
76196;SDS011;64974;53.144;17.962;2023-02-15T06:28:43;60.70;;;27.30;;
76196;SDS011;64974;53.144;17.962;2023-02-15T06:31:09;64.90;;;26.93;;
76196;SDS011;64974;53.144;17.962;2023-02-15T06:33:34;54.55;;;26.65;;
76196;SDS011;64974;53.144;17.962;2023-02-15T06:36:00;66.03;;;26.92;;
76196;SDS011;64974;53.144;17.962;2023-02-15T06:38:25;66.85;;;26.27;;
76196;SDS011;64974;53.144;17.962;2023-02-15T06:40:51;70.45;;;29.48;;
76196;SDS011;64974;53.144;17.962;2023-02-15T06:43:16;69.00;;;30.10;;
76196;SDS011;64974;53.144;17.962;2023-02-15T06:45:41;71.13;;;31.38;;
76196;SDS011;64974;53.144;17.962;2023-02-15T06:48:07;73.18;;;33.78;;
76196;SDS011;64974;53.144;17.962;2023-02-15T06:50:33;73.97;;;33.55;;
76196;SDS011;64974;53.144;17.962;2023-02-15T06:52:59;70.00;;;31.73;;
76196;SDS011;64974;53.144;17.962;2023-02-15T06:55:24;77.35;;;35.17;;
76196;SDS011;64974;53.144;17.962;2023-02-15T06:57:50;72.65;;;33.97;;
76196;SDS011;64974;53.144;17.962;2023-02-15T07:00:15;66.95;;;30.42;;
76196;SDS011;64974;53.144;17.962;2023-02-15T07:05:07;79.87;;;32.50;;
76196;SDS011;64974;53.144;17.962;2023-02-15T07:07:33;79.30;;;33.55;;
76196;SDS011;64974;53.144;17.962;2023-02-15T07:09:58;72.57;;;34.20;;
76196;SDS011;64974;53.144;17.962;2023-02-15T07:12:23;76.20;;;30.43;;
76196;SDS011;64974;53.144;17.962;2023-02-15T07:15:11;79.85;;;32.50;;
76196;SDS011;64974;53.144;17.962;2023-02-15T07:17:39;65.50;;;28.48;;
76196;SDS011;64974;53.144;17.962;2023-02-15T07:20:06;69.55;;;29.13;;
76196;SDS011;64974;53.144;17.962;2023-02-15T07:22:36;58.63;;;27.17;;
76196;SDS011;64974;53.144;17.962;2023-02-15T07:25:02;66.18;;;29.77;;
76196;SDS011;64974;53.144;17.962;2023-02-15T07:27:30;68.07;;;33.67;;
76196;SDS011;64974;53.144;17.962;2023-02-15T07:32:21;76.17;;;34.43;;
76196;SDS011;64974;53.144;17.962;2023-02-15T07:34:46;76.63;;;36.47;;
76196;SDS011;64974;53.144;17.962;2023-02-15T07:37:11;80.70;;;38.60;;
76196;SDS011;64974;53.144;17.962;2023-02-15T07:39:36;93.72;;;41.05;;
76196;SDS011;64974;53.144;17.962;2023-02-15T07:42:02;94.30;;;41.15;;
76196;SDS011;64974;53.144;17.962;2023-02-15T07:44:27;93.30;;;41.90;;
76196;SDS011;64974;53.144;17.962;2023-02-15T07:46:53;94.63;;;40.63;;
76196;SDS011;64974;53.144;17.962;2023-02-15T07:49:18;83.75;;;41.17;;
76196;SDS011;64974;53.144;17.962;2023-02-15T07:51:44;81.90;;;40.55;;
76196;SDS011;64974;53.144;17.962;2023-02-15T07:54:09;90.03;;;40.97;;
76196;SDS011;64974;53.144;17.962;2023-02-15T07:56:34;86.53;;;38.27;;
76196;SDS011;64974;53.144;17.962;2023-02-15T07:59:00;78.55;;;35.40;;
76196;SDS011;64974;53.144;17.962;2023-02-15T08:01:32;75.88;;;33.85;;
76196;SDS011;64974;53.144;17.962;2023-02-15T08:04:00;76.15;;;33.47;;
76196;SDS011;64974;53.144;17.962;2023-02-15T08:06:27;74.20;;;32.70;;
76196;SDS011;64974;53.144;17.962;2023-02-15T08:08:55;78.72;;;34.58;;
76196;SDS011;64974;53.144;17.962;2023-02-15T08:21:41;78.75;;;32.92;;
76196;SDS011;64974;53.144;17.962;2023-02-15T08:24:08;77.68;;;32.17;;
76196;SDS011;64974;53.144;17.962;2023-02-15T08:26:34;66.25;;;28.85;;
76196;SDS011;64974;53.144;17.962;2023-02-15T08:29:00;51.42;;;20.65;;
76196;SDS011;64974;53.144;17.962;2023-02-15T08:31:25;41.55;;;17.92;;
76196;SDS011;64974;53.144;17.962;2023-02-15T08:33:52;43.88;;;18.77;;
76196;SDS011;64974;53.144;17.962;2023-02-15T08:36:20;42.00;;;15.77;;
76196;SDS011;64974;53.144;17.962;2023-02-15T08:38:46;32.70;;;15.05;;
76196;SDS011;64974;53.144;17.962;2023-02-15T08:41:16;38.45;;;18.08;;
76196;SDS011;64974;53.144;17.962;2023-02-15T08:43:48;42.60;;;16.60;;
76196;SDS011;64974;53.144;17.962;2023-02-15T08:46:21;36.08;;;16.25;;
76196;SDS011;64974;53.144;17.962;2023-02-15T08:48:48;33.20;;;14.50;;
76196;SDS011;64974;53.144;17.962;2023-02-15T08:51:14;34.85;;;14.57;;
76196;SDS011;64974;53.144;17.962;2023-02-15T08:53:42;34.03;;;16.23;;
76196;SDS011;64974;53.144;17.962;2023-02-15T08:56:09;34.67;;;15.00;;
76196;SDS011;64974;53.144;17.962;2023-02-15T08:58:36;39.45;;;17.02;;
76196;SDS011;64974;53.144;17.962;2023-02-15T09:01:07;35.28;;;16.55;;
76196;SDS011;64974;53.144;17.962;2023-02-15T09:03:33;33.38;;;14.82;;
76196;SDS011;64974;53.144;17.962;2023-02-15T09:05:59;36.43;;;14.90;;
76196;SDS011;64974;53.144;17.962;2023-02-15T09:10:51;31.90;;;13.93;;
76196;SDS011;64974;53.144;17.962;2023-02-15T09:13:16;32.58;;;14.60;;
76196;SDS011;64974;53.144;17.962;2023-02-15T09:15:41;34.75;;;16.00;;
76196;SDS011;64974;53.144;17.962;2023-02-15T09:18:07;34.53;;;14.50;;
76196;SDS011;64974;53.144;17.962;2023-02-15T09:20:35;31.15;;;12.93;;
76196;SDS011;64974;53.144;17.962;2023-02-15T09:23:01;31.67;;;14.85;;
76196;SDS011;64974;53.144;17.962;2023-02-15T09:25:26;25.37;;;12.87;;
76196;SDS011;64974;53.144;17.962;2023-02-15T09:27:52;28.40;;;13.35;;
76196;SDS011;64974;53.144;17.962;2023-02-15T09:30:17;29.50;;;12.93;;
76196;SDS011;64974;53.144;17.962;2023-02-15T09:32:43;28.63;;;13.05;;
76196;SDS011;64974;53.144;17.962;2023-02-15T09:35:11;27.30;;;12.80;;
76196;SDS011;64974;53.144;17.962;2023-02-15T09:37:36;29.83;;;14.27;;
76196;SDS011;64974;53.144;17.962;2023-02-15T09:40:02;25.90;;;11.83;;
76196;SDS011;64974;53.144;17.962;2023-02-15T09:42:33;24.35;;;11.25;;
76196;SDS011;64974;53.144;17.962;2023-02-15T09:45:20;26.25;;;12.80;;
76196;SDS011;64974;53.144;17.962;2023-02-15T09:53:36;23.73;;;10.38;;
76196;SDS011;64974;53.144;17.962;2023-02-15T09:56:15;27.38;;;11.60;;
76196;SDS011;64974;53.144;17.962;2023-02-15T09:58:46;27.42;;;11.43;;
76196;SDS011;64974;53.144;17.962;2023-02-15T10:26:35;26.45;;;11.68;;
76196;SDS011;64974;53.144;17.962;2023-02-15T10:31:54;23.02;;;11.70;;
76196;SDS011;64974;53.144;17.962;2023-02-15T10:34:38;26.27;;;13.02;;
76196;SDS011;64974;53.144;17.962;2023-02-15T10:42:56;30.27;;;12.82;;
76196;SDS011;64974;53.144;17.962;2023-02-15T10:50:55;32.80;;;15.23;;
76196;SDS011;64974;53.144;17.962;2023-02-15T10:53:40;35.70;;;15.63;;
76196;SDS011;64974;53.144;17.962;2023-02-15T11:05:41;39.78;;;17.23;;
76196;SDS011;64974;53.144;17.962;2023-02-15T11:08:13;39.80;;;17.15;;
76196;SDS011;64974;53.144;17.962;2023-02-15T11:10:42;41.80;;;18.20;;
76196;SDS011;64974;53.144;17.962;2023-02-15T11:13:16;42.42;;;18.95;;
76196;SDS011;64974;53.144;17.962;2023-02-15T11:15:44;37.80;;;16.00;;
76196;SDS011;64974;53.144;17.962;2023-02-15T11:18:14;39.70;;;17.27;;
76196;SDS011;64974;53.144;17.962;2023-02-15T11:20:50;41.35;;;18.10;;
76196;SDS011;64974;53.144;17.962;2023-02-15T11:23:19;37.72;;;17.55;;
76196;SDS011;64974;53.144;17.962;2023-02-15T11:25:47;41.03;;;17.70;;
76196;SDS011;64974;53.144;17.962;2023-02-15T11:28:20;43.03;;;18.05;;
76196;SDS011;64974;53.144;17.962;2023-02-15T11:30:51;42.80;;;18.73;;
76196;SDS011;64974;53.144;17.962;2023-02-15T11:33:38;46.53;;;20.50;;
76196;SDS011;64974;53.144;17.962;2023-02-15T11:36:09;36.67;;;17.27;;
76196;SDS011;64974;53.144;17.962;2023-02-15T11:41:09;50.53;;;19.83;;
76196;SDS011;64974;53.144;17.962;2023-02-15T11:43:41;38.78;;;17.17;;
76196;SDS011;64974;53.144;17.962;2023-02-15T11:48:35;39.28;;;16.90;;
76196;SDS011;64974;53.144;17.962;2023-02-15T11:51:01;41.67;;;17.20;;
76196;SDS011;64974;53.144;17.962;2023-02-15T11:53:30;42.03;;;18.95;;
76196;SDS011;64974;53.144;17.962;2023-02-15T11:55:58;41.78;;;16.92;;
76196;SDS011;64974;53.144;17.962;2023-02-15T11:58:32;37.33;;;17.27;;
76196;SDS011;64974;53.144;17.962;2023-02-15T12:01:09;42.70;;;19.15;;
76196;SDS011;64974;53.144;17.962;2023-02-15T12:03:44;45.00;;;19.20;;
76196;SDS011;64974;53.144;17.962;2023-02-15T12:06:14;40.60;;;18.45;;
76196;SDS011;64974;53.144;17.962;2023-02-15T12:09:06;39.25;;;17.30;;
76196;SDS011;64974;53.144;17.962;2023-02-15T12:11:40;40.70;;;18.38;;
76196;SDS011;64974;53.144;17.962;2023-02-15T12:14:07;39.78;;;18.38;;
76196;SDS011;64974;53.144;17.962;2023-02-15T12:16:44;41.03;;;18.30;;
76196;SDS011;64974;53.144;17.962;2023-02-15T12:22:20;43.60;;;18.08;;
76196;SDS011;64974;53.144;17.962;2023-02-15T12:24:48;45.75;;;19.42;;
76196;SDS011;64974;53.144;17.962;2023-02-15T12:29:43;45.20;;;20.90;;
76196;SDS011;64974;53.144;17.962;2023-02-15T12:32:15;43.78;;;18.58;;
76196;SDS011;64974;53.144;17.962;2023-02-15T12:34:43;39.22;;;17.77;;
76196;SDS011;64974;53.144;17.962;2023-02-15T12:37:21;49.10;;;20.42;;
76196;SDS011;64974;53.144;17.962;2023-02-15T12:39:58;42.85;;;19.08;;
76196;SDS011;64974;53.144;17.962;2023-02-15T12:42:25;48.03;;;19.75;;
76196;SDS011;64974;53.144;17.962;2023-02-15T12:44:56;43.97;;;19.13;;
76196;SDS011;64974;53.144;17.962;2023-02-15T12:47:22;44.28;;;19.30;;
76196;SDS011;64974;53.144;17.962;2023-02-15T12:52:41;43.28;;;18.90;;
76196;SDS011;64974;53.144;17.962;2023-02-15T12:55:27;43.33;;;18.00;;
76196;SDS011;64974;53.144;17.962;2023-02-15T13:03:34;44.33;;;19.88;;
76196;SDS011;64974;53.144;17.962;2023-02-15T13:06:00;51.47;;;21.33;;
76196;SDS011;64974;53.144;17.962;2023-02-15T13:11:02;50.63;;;22.10;;
76196;SDS011;64974;53.144;17.962;2023-02-15T13:13:29;48.13;;;22.20;;
76196;SDS011;64974;53.144;17.962;2023-02-15T13:16:00;49.78;;;20.65;;
76196;SDS011;64974;53.144;17.962;2023-02-15T13:18:30;44.88;;;19.10;;
76196;SDS011;64974;53.144;17.962;2023-02-15T13:21:16;54.42;;;21.88;;
76196;SDS011;64974;53.144;17.962;2023-02-15T13:23:45;54.55;;;21.85;;
76196;SDS011;64974;53.144;17.962;2023-02-15T13:26:17;56.47;;;22.05;;
76196;SDS011;64974;53.144;17.962;2023-02-15T13:28:45;47.47;;;20.05;;
76196;SDS011;64974;53.144;17.962;2023-02-15T13:31:17;50.03;;;20.58;;
76196;SDS011;64974;53.144;17.962;2023-02-15T13:33:45;50.38;;;20.30;;
76196;SDS011;64974;53.144;17.962;2023-02-15T13:41:46;50.50;;;21.98;;
76196;SDS011;64974;53.144;17.962;2023-02-15T14:09:12;58.40;;;22.80;;
76196;SDS011;64974;53.144;17.962;2023-02-15T14:11:54;44.78;;;19.02;;
76196;SDS011;64974;53.144;17.962;2023-02-15T14:17:14;55.47;;;22.70;;
76196;SDS011;64974;53.144;17.962;2023-02-15T14:19:46;56.25;;;21.95;;
76196;SDS011;64974;53.144;17.962;2023-02-15T14:25:18;55.55;;;22.30;;
76196;SDS011;64974;53.144;17.962;2023-02-15T14:30:39;59.03;;;24.00;;
76196;SDS011;64974;53.144;17.962;2023-02-15T14:35:57;56.97;;;20.88;;
76196;SDS011;64974;53.144;17.962;2023-02-15T14:41:21;51.38;;;21.02;;
76196;SDS011;64974;53.144;17.962;2023-02-15T14:46:38;56.05;;;22.65;;
76196;SDS011;64974;53.144;17.962;2023-02-15T14:56:41;53.00;;;20.40;;
76196;SDS011;64974;53.144;17.962;2023-02-15T15:01:41;54.60;;;21.10;;
76196;SDS011;64974;53.144;17.962;2023-02-15T15:04:09;53.72;;;20.20;;
76196;SDS011;64974;53.144;17.962;2023-02-15T15:06:37;62.72;;;25.73;;
76196;SDS011;64974;53.144;17.962;2023-02-15T15:09:20;50.25;;;21.90;;
76196;SDS011;64974;53.144;17.962;2023-02-15T15:11:51;61.05;;;24.42;;
76196;SDS011;64974;53.144;17.962;2023-02-15T15:17:02;61.05;;;24.25;;
76196;SDS011;64974;53.144;17.962;2023-02-15T15:22:16;59.45;;;22.23;;
76196;SDS011;64974;53.144;17.962;2023-02-15T15:24:46;58.55;;;23.73;;
76196;SDS011;64974;53.144;17.962;2023-02-15T15:32:38;52.05;;;19.80;;
76196;SDS011;64974;53.144;17.962;2023-02-15T15:38:16;49.88;;;19.48;;
76196;SDS011;64974;53.144;17.962;2023-02-15T15:46:52;49.92;;;18.88;;
76196;SDS011;64974;53.144;17.962;2023-02-15T15:49:40;44.03;;;18.38;;
76196;SDS011;64974;53.144;17.962;2023-02-15T15:52:13;49.78;;;19.90;;
76196;SDS011;64974;53.144;17.962;2023-02-15T15:54:40;62.15;;;23.77;;
76196;SDS011;64974;53.144;17.962;2023-02-15T15:57:12;64.60;;;22.38;;
76196;SDS011;64974;53.144;17.962;2023-02-15T15:59:56;60.30;;;22.20;;
76196;SDS011;64974;53.144;17.962;2023-02-15T16:02:24;54.95;;;22.52;;
76196;SDS011;64974;53.144;17.962;2023-02-15T16:04:49;53.53;;;20.92;;
76196;SDS011;64974;53.144;17.962;2023-02-15T16:09:56;46.28;;;19.35;;
76196;SDS011;64974;53.144;17.962;2023-02-15T16:12:28;52.80;;;21.00;;
76196;SDS011;64974;53.144;17.962;2023-02-15T16:14:55;52.20;;;19.55;;
76196;SDS011;64974;53.144;17.962;2023-02-15T16:17:25;50.80;;;21.42;;
76196;SDS011;64974;53.144;17.962;2023-02-15T16:19:53;53.95;;;20.58;;
76196;SDS011;64974;53.144;17.962;2023-02-15T16:22:24;52.25;;;21.45;;
76196;SDS011;64974;53.144;17.962;2023-02-15T16:35:39;59.25;;;24.67;;
76196;SDS011;64974;53.144;17.962;2023-02-15T16:38:08;62.03;;;27.27;;
76196;SDS011;64974;53.144;17.962;2023-02-15T16:40:36;66.15;;;27.60;;
76196;SDS011;64974;53.144;17.962;2023-02-15T16:43:20;60.33;;;26.33;;
76196;SDS011;64974;53.144;17.962;2023-02-15T16:45:51;57.50;;;26.92;;
76196;SDS011;64974;53.144;17.962;2023-02-15T16:48:21;65.55;;;30.88;;
76196;SDS011;64974;53.144;17.962;2023-02-15T16:50:49;55.20;;;26.25;;
76196;SDS011;64974;53.144;17.962;2023-02-15T16:53:34;57.38;;;25.95;;
76196;SDS011;64974;53.144;17.962;2023-02-15T16:56:00;59.00;;;24.95;;
76196;SDS011;64974;53.144;17.962;2023-02-15T16:58:29;74.35;;;30.98;;
76196;SDS011;64974;53.144;17.962;2023-02-15T17:00:59;72.72;;;30.80;;
76196;SDS011;64974;53.144;17.962;2023-02-15T17:03:26;61.70;;;26.88;;
76196;SDS011;64974;53.144;17.962;2023-02-15T17:05:53;68.35;;;28.67;;
76196;SDS011;64974;53.144;17.962;2023-02-15T17:13:23;70.23;;;28.27;;
76196;SDS011;64974;53.144;17.962;2023-02-15T17:18:24;67.97;;;26.42;;
76196;SDS011;64974;53.144;17.962;2023-02-15T17:20:52;55.95;;;25.17;;
76196;SDS011;64974;53.144;17.962;2023-02-15T17:23:23;74.10;;;28.70;;
76196;SDS011;64974;53.144;17.962;2023-02-15T17:26:00;71.57;;;30.15;;
76196;SDS011;64974;53.144;17.962;2023-02-15T17:28:51;73.40;;;32.15;;
76196;SDS011;64974;53.144;17.962;2023-02-15T17:31:19;78.80;;;31.90;;
76196;SDS011;64974;53.144;17.962;2023-02-15T17:33:45;74.13;;;32.30;;
76196;SDS011;64974;53.144;17.962;2023-02-15T17:36:14;72.35;;;32.33;;
76196;SDS011;64974;53.144;17.962;2023-02-15T17:41:47;91.47;;;37.15;;
76196;SDS011;64974;53.144;17.962;2023-02-15T17:44:12;78.32;;;32.75;;
76196;SDS011;64974;53.144;17.962;2023-02-15T17:46:40;71.45;;;30.20;;
76196;SDS011;64974;53.144;17.962;2023-02-15T17:49:05;67.70;;;27.33;;
76196;SDS011;64974;53.144;17.962;2023-02-15T17:51:31;75.75;;;33.50;;
76196;SDS011;64974;53.144;17.962;2023-02-15T17:53:59;74.18;;;30.30;;
76196;SDS011;64974;53.144;17.962;2023-02-15T17:56:44;67.82;;;27.27;;
76196;SDS011;64974;53.144;17.962;2023-02-15T17:59:09;70.70;;;28.58;;
76196;SDS011;64974;53.144;17.962;2023-02-15T18:01:37;68.43;;;28.70;;
76196;SDS011;64974;53.144;17.962;2023-02-15T18:04:26;95.13;;;33.20;;
76196;SDS011;64974;53.144;17.962;2023-02-15T18:07:10;118.30;;;42.08;;
76196;SDS011;64974;53.144;17.962;2023-02-15T18:09:55;175.00;;;58.67;;
76196;SDS011;64974;53.144;17.962;2023-02-15T18:12:39;161.05;;;53.25;;
76196;SDS011;64974;53.144;17.962;2023-02-15T18:15:05;135.77;;;49.63;;
76196;SDS011;64974;53.144;17.962;2023-02-15T18:17:32;115.07;;;44.00;;